createdAt,value
2023-04-17T00:01:09.105Z,102333.47
2023-04-17T00:03:35.710Z,102341.78
2023-04-17T00:06:02.523Z,102336.56
2023-04-17T00:08:29.197Z,102305.78
2023-04-17T00:11:06.400Z,102338.47
2023-04-17T00:13:34.003Z,102319.88
2023-04-17T00:16:00.654Z,102321.72
2023-04-17T00:18:27.108Z,102327.69
2023-04-17T00:20:53.632Z,102338.56
2023-04-17T00:23:20.256Z,102335.69
2023-04-17T00:25:46.712Z,102330.78
2023-04-17T00:28:13.147Z,102319.03
2023-04-17T00:30:39.582Z,102338.56
2023-04-17T00:33:06.080Z,102340.50
2023-04-17T00:35:32.509Z,102345.84
2023-04-17T00:37:58.973Z,102332.38
2023-04-17T00:40:25.436Z,102335.69
2023-04-17T00:42:56.025Z,102345.31
2023-04-17T00:45:22.477Z,102341.88
2023-04-17T00:47:49.966Z,102341.34
2023-04-17T00:50:16.658Z,102335.25
2023-04-17T00:52:44.992Z,102339.81
2023-04-17T00:55:12.508Z,102330.44
2023-04-17T00:57:39.376Z,102326.47
2023-04-17T01:00:08.468Z,102285.63
2023-04-17T01:02:35.287Z,102352.09
2023-04-17T01:05:02.604Z,102282.63
2023-04-17T01:07:30.807Z,102327.25
2023-04-17T01:09:57.330Z,102321.91
2023-04-17T01:12:25.231Z,102325.09
2023-04-17T01:14:55.797Z,102342.50
2023-04-17T01:17:23.268Z,102346.13
2023-04-17T01:19:50.008Z,102325.72
2023-04-17T01:22:16.638Z,102338.75
2023-04-17T01:24:43.626Z,102347.41
2023-04-17T01:27:13.563Z,102326.97
2023-04-17T01:29:41.339Z,102330.81
2023-04-17T01:32:08.327Z,102348.78
2023-04-17T01:34:37.208Z,102344.78
2023-04-17T01:37:03.931Z,102353.53
2023-04-17T01:39:30.619Z,102353.63
2023-04-17T01:41:57.332Z,102354.63
2023-04-17T01:44:23.880Z,102354.81
2023-04-17T01:46:51.176Z,102338.88
2023-04-17T01:49:17.649Z,102338.63
2023-04-17T01:51:44.210Z,102355.41
2023-04-17T01:54:10.824Z,102360.97
2023-04-17T01:56:37.309Z,102346.97
2023-04-17T01:59:03.775Z,102339.34
2023-04-17T02:01:31.180Z,102350.09
2023-04-17T02:03:57.983Z,102355.16
2023-04-17T02:06:25.505Z,102355.25
2023-04-17T02:08:51.911Z,102311.63
2023-04-17T02:11:18.488Z,102347.53
2023-04-17T02:13:45.085Z,102343.66
2023-04-17T02:16:12.627Z,102353.19
2023-04-17T02:18:40.684Z,102360.22
2023-04-17T02:21:07.270Z,102357.00
2023-04-17T02:23:33.775Z,102362.22
2023-04-17T02:26:00.432Z,102355.28
2023-04-17T02:28:27.371Z,102347.66
2023-04-17T02:30:53.955Z,102352.91
2023-04-17T02:33:21.351Z,102345.41
2023-04-17T02:35:47.929Z,102353.22
2023-04-17T02:38:14.571Z,102359.59
2023-04-17T02:40:41.192Z,102263.88
2023-04-17T02:43:07.658Z,102357.22
2023-04-17T02:45:34.101Z,102363.59
2023-04-17T02:48:01.152Z,102356.72
2023-04-17T02:50:27.668Z,102335.44
2023-04-17T02:52:54.660Z,102359.69
2023-04-17T02:55:21.268Z,102369.59
2023-04-17T02:57:47.767Z,102361.78
2023-04-17T03:00:15.075Z,102364.72
2023-04-17T03:02:42.138Z,102368.34
2023-04-17T03:05:09.170Z,102364.19
2023-04-17T03:07:35.757Z,102365.88
2023-04-17T03:10:03.293Z,102359.03
2023-04-17T03:12:29.783Z,102368.75
2023-04-17T03:14:56.276Z,102360.06
2023-04-17T03:17:22.833Z,102366.16
2023-04-17T03:19:49.335Z,102366.16
2023-04-17T03:22:16.046Z,102353.53
2023-04-17T03:24:42.571Z,102376.91
2023-04-17T03:27:09.111Z,102350.94
2023-04-17T03:29:35.651Z,102358.84
2023-04-17T03:32:02.214Z,102366.75
2023-04-17T03:34:29.618Z,102356.19
2023-04-17T03:36:56.026Z,102337.81
2023-04-17T03:39:22.474Z,102375.28
2023-04-17T03:41:48.949Z,102376.31
2023-04-17T03:44:17.212Z,102371.22
2023-04-17T03:46:43.641Z,102385.00
2023-04-17T03:49:10.452Z,102383.28
2023-04-17T03:51:37.154Z,102358.25
2023-04-17T03:54:03.934Z,102380.63
2023-04-17T03:56:30.573Z,102388.31
2023-04-17T03:58:57.096Z,102390.91
2023-04-17T04:01:23.608Z,102349.50
2023-04-17T04:03:50.306Z,102383.94
2023-04-17T04:06:20.156Z,102387.97
2023-04-17T04:08:46.637Z,102387.84
2023-04-17T04:11:13.873Z,102391.28
2023-04-17T04:13:40.650Z,102395.66
2023-04-17T04:16:07.772Z,102371.84
2023-04-17T04:18:35.280Z,102386.63
2023-04-17T04:21:02.003Z,102374.16
2023-04-17T04:23:30.453Z,102403.53
2023-04-17T04:25:57.895Z,102414.88
2023-04-17T04:28:24.502Z,102410.31
2023-04-17T04:30:53.612Z,102398.97
2023-04-17T04:33:20.900Z,102412.97
2023-04-17T04:35:48.471Z,102415.72
2023-04-17T04:38:17.171Z,102409.53
2023-04-17T04:40:50.058Z,102406.13
2023-04-17T04:43:16.746Z,102406.13
2023-04-17T04:45:43.349Z,102387.38
2023-04-17T04:48:09.848Z,102413.75
2023-04-17T04:50:36.422Z,102394.25
2023-04-17T04:53:02.869Z,102413.66
2023-04-17T04:55:30.820Z,102402.78
2023-04-17T04:57:57.556Z,102407.56
2023-04-17T05:00:24.819Z,102416.19
2023-04-17T05:02:51.379Z,102424.09
2023-04-17T05:05:17.910Z,102417.81
2023-04-17T05:07:44.346Z,102410.31
2023-04-17T05:10:10.841Z,102424.75
2023-04-17T05:12:37.304Z,102422.00
2023-04-17T05:15:04.025Z,102411.06
2023-04-17T05:17:30.770Z,102428.19
2023-04-17T05:19:57.296Z,102438.47
2023-04-17T05:22:23.708Z,102427.34
2023-04-17T05:24:50.185Z,102410.69
2023-04-17T05:27:16.591Z,102444.94
2023-04-17T05:29:43.163Z,102418.97
2023-04-17T05:32:09.709Z,102440.19
2023-04-17T05:34:36.325Z,102425.44
2023-04-17T05:37:03.387Z,102445.03
2023-04-17T05:39:29.915Z,102457.66
2023-04-17T05:41:56.474Z,102458.22
2023-04-17T05:44:22.951Z,102437.41
2023-04-17T05:46:49.385Z,102455.81
2023-04-17T05:49:16.001Z,102436.03
2023-04-17T05:51:42.459Z,102439.81
2023-04-17T05:54:08.930Z,102464.47
2023-04-17T05:56:35.563Z,102463.22
2023-04-17T05:59:02.014Z,102459.34
2023-04-17T06:01:29.939Z,102465.00
2023-04-17T06:03:57.195Z,102469.50
2023-04-17T06:06:23.918Z,102467.72
2023-04-17T06:08:52.465Z,102471.63
2023-04-17T06:11:19.054Z,102464.25
2023-04-17T06:13:46.028Z,102469.19
2023-04-17T06:16:12.556Z,102484.56
2023-04-17T06:18:40.049Z,102482.38
2023-04-17T06:21:09.979Z,102481.09
2023-04-17T06:23:36.393Z,102478.66
2023-04-17T06:26:03.004Z,102484.31
2023-04-17T06:28:29.459Z,102483.81
2023-04-17T06:30:55.955Z,102476.44
2023-04-17T06:33:24.523Z,102478.91
2023-04-17T06:35:52.529Z,102461.38
2023-04-17T06:38:18.960Z,102462.66
2023-04-17T06:40:46.592Z,102488.53
2023-04-17T06:43:15.371Z,102499.84
2023-04-17T06:45:42.941Z,102481.69
2023-04-17T06:48:09.459Z,102439.09
2023-04-17T06:50:36.368Z,102492.44
2023-04-17T06:53:02.836Z,102476.56
2023-04-17T06:55:29.618Z,102482.13
2023-04-17T06:57:56.060Z,102487.72
2023-04-17T07:00:22.883Z,102486.56
2023-04-17T07:02:49.412Z,102487.88
2023-04-17T07:05:16.641Z,102491.84
2023-04-17T07:07:43.107Z,102476.63
2023-04-17T07:10:09.719Z,102493.88
2023-04-17T07:12:36.237Z,102495.50
2023-04-17T07:15:02.904Z,102506.72
2023-04-17T07:17:29.374Z,102507.44
2023-04-17T07:19:56.310Z,102508.53
2023-04-17T07:22:23.377Z,102516.56
2023-04-17T07:24:50.776Z,102502.19
2023-04-17T07:27:17.416Z,102515.97
2023-04-17T07:29:46.959Z,102520.22
2023-04-17T07:32:14.736Z,102517.69
2023-04-17T07:34:41.929Z,102519.13
2023-04-17T07:37:08.440Z,102512.56
2023-04-17T07:39:35.220Z,102509.03
2023-04-17T07:42:06.291Z,102520.63
2023-04-17T07:44:32.915Z,102521.50
2023-04-17T07:46:59.559Z,102500.88
2023-04-17T07:49:26.045Z,102526.41
2023-04-17T07:51:52.684Z,102527.25
2023-04-17T07:54:19.130Z,102481.88
2023-04-17T07:56:49.385Z,102521.63
2023-04-17T07:59:16.750Z,102529.03
2023-04-17T08:01:43.612Z,102501.47
2023-04-17T08:04:10.313Z,102525.38
2023-04-17T08:06:36.969Z,102510.03
2023-04-17T08:09:04.248Z,102535.88
2023-04-17T08:11:30.783Z,102518.91
2023-04-17T08:13:57.213Z,102525.38
2023-04-17T08:16:23.752Z,102517.44
2023-04-17T08:18:50.374Z,102477.56
2023-04-17T08:21:16.791Z,102527.81
2023-04-17T08:23:43.248Z,102518.50
2023-04-17T08:26:09.779Z,102521.19
2023-04-17T08:28:36.219Z,102506.66
2023-04-17T08:31:03.124Z,102525.91
2023-04-17T08:33:29.603Z,102530.25
2023-04-17T08:35:56.137Z,102527.06
2023-04-17T08:38:22.773Z,102526.81
2023-04-17T08:40:53.516Z,102525.41
2023-04-17T08:43:21.499Z,102525.28
2023-04-17T08:45:53.662Z,102527.59
2023-04-17T08:48:23.792Z,102525.94
2023-04-17T08:50:52.439Z,102527.53
2023-04-17T08:53:20.556Z,102524.28
2023-04-17T08:55:47.945Z,102527.16
2023-04-17T08:58:15.178Z,102526.78
2023-04-17T09:00:45.409Z,102524.38
2023-04-17T09:03:12.866Z,102530.69
2023-04-17T09:05:45.972Z,102532.16
2023-04-17T09:08:20.571Z,102534.59
2023-04-17T09:10:49.078Z,102529.31
2023-04-17T09:13:17.978Z,102521.72
2023-04-17T09:15:46.444Z,102544.78
2023-04-17T09:18:26.116Z,102539.47
2023-04-17T09:20:53.232Z,102522.41
2023-04-17T09:23:20.666Z,102540.00
2023-04-17T09:26:04.840Z,102525.56
2023-04-17T09:28:35.337Z,102528.78
2023-04-17T09:31:07.619Z,102537.25
2023-04-17T09:33:34.193Z,102533.56
2023-04-17T09:36:22.183Z,102542.81
2023-04-17T09:38:49.917Z,102533.16
2023-04-17T09:41:28.783Z,102539.72
2023-04-17T09:44:01.753Z,102525.91
2023-04-17T09:46:38.495Z,102543.38
2023-04-17T09:49:22.089Z,102460.41
2023-04-17T09:51:49.916Z,102531.63
2023-04-17T09:54:17.440Z,102540.59
2023-04-17T09:56:44.012Z,102541.63
2023-04-17T09:59:10.995Z,102528.34
2023-04-17T10:01:38.110Z,102538.03
2023-04-17T10:04:05.609Z,102518.41
2023-04-17T10:06:33.481Z,102529.50
2023-04-17T10:09:00.507Z,102536.44
2023-04-17T10:11:44.962Z,102547.09
2023-04-17T10:14:25.909Z,102507.34
2023-04-17T10:16:53.718Z,102488.78
2023-04-17T10:19:34.083Z,102541.31
2023-04-17T10:22:16.173Z,102541.78
2023-04-17T10:24:43.090Z,102537.38
2023-04-17T10:27:24.646Z,102538.22
2023-04-17T10:29:54.895Z,102538.44
2023-04-17T10:32:24.201Z,102519.78
2023-04-17T10:34:51.892Z,102543.22
2023-04-17T10:37:18.995Z,102539.97
2023-04-17T10:40:02.122Z,102540.75
2023-04-17T10:42:30.121Z,102540.44
2023-04-17T10:45:01.743Z,102533.63
2023-04-17T10:47:33.624Z,102531.53
2023-04-17T10:50:03.360Z,102540.94
2023-04-17T10:52:32.929Z,102539.34
2023-04-17T10:55:17.116Z,102525.03
2023-04-17T10:57:59.200Z,102528.44
2023-04-17T11:00:52.509Z,102541.50
2023-04-17T11:03:23.241Z,102527.72
2023-04-17T11:05:49.970Z,102543.69
2023-04-17T11:08:16.394Z,102538.84
2023-04-17T11:10:43.033Z,102535.56
2023-04-17T11:13:10.716Z,102536.03
2023-04-17T11:15:37.314Z,102539.50
2023-04-17T11:18:04.150Z,102507.28
2023-04-17T11:20:32.639Z,102539.53
2023-04-17T11:23:04.204Z,102548.50
2023-04-17T11:25:33.740Z,102542.84
2023-04-17T11:28:05.952Z,102550.44
2023-04-17T11:30:40.491Z,102545.91
2023-04-17T11:33:08.367Z,102555.63
2023-04-17T11:35:36.800Z,102555.63
2023-04-17T11:38:17.813Z,102531.91
2023-04-17T11:40:45.763Z,102563.63
2023-04-17T11:43:13.752Z,102557.34
2023-04-17T11:45:43.114Z,102537.13
2023-04-17T11:48:11.872Z,102552.22
2023-04-17T11:50:40.244Z,102552.41
2023-04-17T11:53:07.285Z,102522.00
2023-04-17T11:55:35.119Z,102560.81
2023-04-17T11:58:06.555Z,102564.31
2023-04-17T12:00:33.968Z,102556.41
2023-04-17T12:03:02.466Z,102536.56
2023-04-17T12:05:31.003Z,102571.38
2023-04-17T12:08:05.869Z,102564.00
2023-04-17T12:10:43.714Z,102561.81
2023-04-17T12:13:11.388Z,102556.72
2023-04-17T12:15:40.928Z,102577.59
2023-04-17T12:18:08.872Z,102586.13
2023-04-17T12:20:36.493Z,102577.81
2023-04-17T12:23:04.574Z,102567.94
2023-04-17T12:25:33.130Z,102583.38
2023-04-17T12:28:00.882Z,102572.03
2023-04-17T12:30:27.919Z,102578.47
2023-04-17T12:32:55.352Z,102582.34
2023-04-17T12:35:23.113Z,102577.97
2023-04-17T12:37:51.473Z,102550.50
2023-04-17T12:40:19.490Z,102556.75
2023-04-17T12:42:49.504Z,102525.34
2023-04-17T12:45:17.220Z,102588.50
2023-04-17T12:47:44.420Z,102580.00
2023-04-17T12:50:12.054Z,102578.31
2023-04-17T12:52:40.910Z,102562.34
2023-04-17T12:55:08.672Z,102584.38
2023-04-17T12:57:36.585Z,102574.19
2023-04-17T13:00:09.168Z,102560.72
2023-04-17T13:02:36.100Z,102597.06
2023-04-17T13:05:02.934Z,102602.31
2023-04-17T13:07:29.794Z,102575.44
2023-04-17T13:09:56.878Z,102540.09
2023-04-17T13:12:23.324Z,102594.28
2023-04-17T13:14:49.923Z,102597.75
2023-04-17T13:17:17.382Z,102602.34
2023-04-17T13:19:44.466Z,102594.38
2023-04-17T13:22:11.012Z,102580.31
2023-04-17T13:24:37.797Z,102600.88
2023-04-17T13:27:04.597Z,102598.41
2023-04-17T13:29:31.320Z,102595.53
2023-04-17T13:31:57.737Z,102580.88
2023-04-17T13:34:24.203Z,102593.59
2023-04-17T13:36:50.697Z,102583.41
2023-04-17T13:39:17.236Z,102598.84
2023-04-17T13:41:43.756Z,102584.03
2023-04-17T13:44:10.382Z,102579.78
2023-04-17T13:46:36.881Z,102580.31
2023-04-17T13:49:03.899Z,102549.50
2023-04-17T13:51:31.928Z,102570.91
2023-04-17T13:54:01.657Z,102530.00
2023-04-17T13:56:28.769Z,102571.81
2023-04-17T13:58:55.828Z,102554.63
2023-04-17T14:01:22.370Z,102575.66
2023-04-17T14:03:49.046Z,102540.44
2023-04-17T14:06:17.779Z,102563.88
2023-04-17T14:08:45.632Z,102565.47
2023-04-17T14:11:12.903Z,102574.97
2023-04-17T14:13:39.416Z,102568.91
2023-04-17T14:16:06.390Z,102562.50
2023-04-17T14:18:32.902Z,102562.69
2023-04-17T14:20:59.331Z,102570.16
2023-04-17T14:23:25.821Z,102574.38
2023-04-17T14:25:52.324Z,102565.25
2023-04-17T14:28:19.010Z,102563.53
2023-04-17T14:30:45.698Z,102567.78
2023-04-17T14:33:12.135Z,102567.63
2023-04-17T14:35:40.121Z,102568.00
2023-04-17T14:38:07.029Z,102545.25
2023-04-17T14:40:33.878Z,102563.63
2023-04-17T14:43:00.341Z,102571.88
2023-04-17T14:45:26.834Z,102500.56
2023-04-17T14:47:53.263Z,102583.06
2023-04-17T14:50:20.301Z,102562.88
2023-04-17T14:52:46.810Z,102538.03
2023-04-17T14:55:13.506Z,102540.28
2023-04-17T14:57:40.113Z,102572.28
2023-04-17T15:00:08.309Z,102548.69
2023-04-17T15:02:38.854Z,102551.31
2023-04-17T15:05:06.649Z,102554.66
2023-04-17T15:07:33.139Z,102518.94
2023-04-17T15:09:59.779Z,102542.56
2023-04-17T15:12:26.438Z,102571.25
2023-04-17T15:14:53.112Z,102540.75
2023-04-17T15:17:19.878Z,102548.13
2023-04-17T15:19:46.426Z,102543.16
2023-04-17T15:22:12.964Z,102572.72
2023-04-17T15:24:39.425Z,102567.31
2023-04-17T15:27:06.234Z,102561.66
2023-04-17T15:29:32.776Z,102567.03
2023-04-17T15:32:00.717Z,102567.25
2023-04-17T15:34:27.207Z,102563.88
2023-04-17T15:36:53.710Z,102585.97
2023-04-17T15:39:20.195Z,102580.75
2023-04-17T15:41:46.772Z,102588.25
2023-04-17T15:44:13.191Z,102590.88
2023-04-17T15:46:39.727Z,102589.66
2023-04-17T15:49:09.169Z,102592.09
2023-04-17T15:51:35.740Z,102573.03
2023-04-17T15:54:02.137Z,102602.69
2023-04-17T15:56:31.909Z,102592.19
2023-04-17T15:58:58.407Z,102591.50
2023-04-17T16:01:25.121Z,102595.38
2023-04-17T16:03:52.129Z,102601.69
2023-04-17T16:06:20.370Z,102589.75
2023-04-17T16:08:47.247Z,102578.28
2023-04-17T16:11:14.872Z,102599.34
2023-04-17T16:13:41.319Z,102595.09
2023-04-17T16:16:08.150Z,102618.53
2023-04-17T16:18:34.581Z,102613.41
2023-04-17T16:21:01.044Z,102620.78
2023-04-17T16:23:27.576Z,102618.69
2023-04-17T16:25:55.195Z,102626.34
2023-04-17T16:28:21.663Z,102610.28
2023-04-17T16:30:49.039Z,102638.38
2023-04-17T16:33:15.624Z,102616.66
2023-04-17T16:35:42.821Z,102599.53
2023-04-17T16:38:12.354Z,102630.72
2023-04-17T16:40:39.468Z,102634.34
2023-04-17T16:43:06.259Z,102618.53
2023-04-17T16:45:32.787Z,102609.09
2023-04-17T16:47:59.414Z,102645.13
2023-04-17T16:50:25.922Z,102619.25
2023-04-17T16:52:52.455Z,102640.69
2023-04-17T16:55:19.085Z,102647.44
2023-04-17T16:57:47.648Z,102644.88
2023-04-17T17:00:14.681Z,102637.50
2023-04-17T17:02:41.317Z,102650.44
2023-04-17T17:05:08.611Z,102646.88
2023-04-17T17:07:35.154Z,102652.97
2023-04-17T17:10:01.679Z,102638.59
2023-04-17T17:12:28.130Z,102635.91
2023-04-17T17:14:54.718Z,102646.16
2023-04-17T17:17:21.180Z,102651.03
2023-04-17T17:19:47.660Z,102660.41
2023-04-17T17:22:14.070Z,102637.88
2023-04-17T17:24:40.522Z,102648.09
2023-04-17T17:27:06.950Z,102648.66
2023-04-17T17:29:33.513Z,102663.81
2023-04-17T17:32:02.194Z,102671.88
2023-04-17T17:34:28.681Z,102661.50
2023-04-17T17:36:55.392Z,102642.94
2023-04-17T17:39:22.194Z,102667.84
2023-04-17T17:41:49.026Z,102652.81
2023-04-17T17:44:15.659Z,102654.75
2023-04-17T17:46:42.265Z,102661.81
2023-04-17T17:49:08.754Z,102672.06
2023-04-17T17:51:35.420Z,102681.78
2023-04-17T17:54:01.912Z,102678.34
2023-04-17T17:56:28.476Z,102652.91
2023-04-17T17:58:55.031Z,102673.88
2023-04-17T18:01:24.524Z,102676.84
2023-04-17T18:03:51.668Z,102679.44
2023-04-17T18:06:18.592Z,102636.38
2023-04-17T18:08:45.106Z,102645.44
2023-04-17T18:11:13.624Z,102680.66
2023-04-17T18:13:40.055Z,102666.44
2023-04-17T18:16:06.961Z,102677.06
2023-04-17T18:18:33.448Z,102678.25
2023-04-17T18:20:59.871Z,102685.63
2023-04-17T18:23:26.275Z,102689.53
2023-04-17T18:25:59.683Z,102671.22
2023-04-17T18:28:26.613Z,102678.84
2023-04-17T18:30:53.308Z,102690.56
2023-04-17T18:33:20.360Z,102683.69
2023-04-17T18:35:46.982Z,102691.25
2023-04-17T18:38:13.467Z,102620.59
2023-04-17T18:40:39.897Z,102681.09
2023-04-17T18:43:06.590Z,102699.44
2023-04-17T18:45:33.109Z,102693.78
2023-04-17T18:47:59.598Z,102696.69
2023-04-17T18:50:26.971Z,102691.91
2023-04-17T18:52:53.456Z,102696.88
2023-04-17T18:55:20.148Z,102670.75
2023-04-17T18:57:46.618Z,102680.69
2023-04-17T19:00:13.405Z,102704.41
2023-04-17T19:02:40.647Z,102699.72
2023-04-17T19:05:07.787Z,102671.09
2023-04-17T19:07:34.591Z,102720.56
2023-04-17T19:10:01.171Z,102706.16
2023-04-17T19:12:27.711Z,102713.38
2023-04-17T19:14:57.031Z,102703.63
2023-04-17T19:17:25.322Z,102715.75
2023-04-17T19:19:51.847Z,102716.28
2023-04-17T19:22:18.541Z,102705.00
2023-04-17T19:24:50.236Z,102722.25
2023-04-17T19:27:17.008Z,102713.25
2023-04-17T19:29:43.575Z,102717.13
2023-04-17T19:32:10.703Z,102727.03
2023-04-17T19:34:37.161Z,102717.69
2023-04-17T19:37:04.043Z,102729.53
2023-04-17T19:39:31.003Z,102674.94
2023-04-17T19:41:57.953Z,102718.13
2023-04-17T19:44:25.951Z,102719.91
2023-04-17T19:46:53.923Z,102729.13
2023-04-17T19:49:20.335Z,102734.72
2023-04-17T19:51:46.885Z,102725.69
2023-04-17T19:54:13.418Z,102736.19
2023-04-17T19:56:39.940Z,102707.28
2023-04-17T19:59:06.637Z,102724.03
2023-04-17T20:01:33.377Z,102707.03
2023-04-17T20:04:00.188Z,102731.31
2023-04-17T20:06:26.973Z,102734.09
2023-04-17T20:08:53.780Z,102741.31
2023-04-17T20:11:20.449Z,102724.38
2023-04-17T20:13:46.873Z,102716.78
2023-04-17T20:16:13.374Z,102749.44
2023-04-17T20:18:41.652Z,102747.56
2023-04-17T20:21:08.072Z,102750.16
2023-04-17T20:23:34.543Z,102747.28
2023-04-17T20:26:01.066Z,102742.75
2023-04-17T20:28:28.985Z,102769.75
2023-04-17T20:30:55.747Z,102739.78
2023-04-17T20:33:22.591Z,102730.16
2023-04-17T20:35:49.312Z,102750.59
2023-04-17T20:38:15.809Z,102751.38
2023-04-17T20:40:42.426Z,102735.94
2023-04-17T20:43:08.902Z,102749.56
2023-04-17T20:45:35.768Z,102750.53
2023-04-17T20:48:02.288Z,102750.53
2023-04-17T20:50:28.751Z,102748.72
2023-04-17T20:52:55.209Z,102753.09
2023-04-17T20:55:21.850Z,102752.25
2023-04-17T20:57:48.373Z,102694.50
2023-04-17T21:00:15.910Z,102745.28
2023-04-17T21:02:43.475Z,102753.19
2023-04-17T21:05:10.149Z,102753.09
2023-04-17T21:07:37.854Z,102744.41
2023-04-17T21:10:05.159Z,102741.06
2023-04-17T21:12:33.089Z,102756.53
2023-04-17T21:14:59.714Z,102736.59
2023-04-17T21:17:26.316Z,102744.16
2023-04-17T21:19:55.630Z,102738.69
2023-04-17T21:22:22.115Z,102746.56
2023-04-17T21:24:48.588Z,102700.78
2023-04-17T21:27:15.496Z,102745.97
2023-04-17T21:29:42.081Z,102742.38
2023-04-17T21:32:08.537Z,102733.34
2023-04-17T21:34:35.249Z,102742.28
2023-04-17T21:37:03.523Z,102743.72
2023-04-17T21:39:32.834Z,102761.88
2023-04-17T21:42:00.022Z,102753.88
2023-04-17T21:44:26.528Z,102746.56
2023-04-17T21:46:53.168Z,102755.16
2023-04-17T21:49:20.708Z,102708.75
2023-04-17T21:51:47.140Z,102741.91
2023-04-17T21:54:13.891Z,102712.88
2023-04-17T21:56:40.612Z,102763.75
2023-04-17T21:59:07.117Z,102758.34
2023-04-17T22:01:33.694Z,102762.28
2023-04-17T22:04:00.356Z,102754.28
2023-04-17T22:06:27.019Z,102707.03
2023-04-17T22:08:53.465Z,102767.09
2023-04-17T22:11:20.423Z,102757.81
2023-04-17T22:13:47.161Z,102780.44
2023-04-17T22:16:13.658Z,102773.53
2023-04-17T22:18:40.216Z,102772.44
2023-04-17T22:21:07.013Z,102777.69
2023-04-17T22:23:33.545Z,102775.25
2023-04-17T22:26:00.074Z,102742.50
2023-04-17T22:28:30.125Z,102777.84
2023-04-17T22:30:57.681Z,102784.69
2023-04-17T22:33:24.440Z,102766.81
2023-04-17T22:35:50.845Z,102784.03
2023-04-17T22:38:18.567Z,102772.91
2023-04-17T22:40:45.053Z,102780.59
2023-04-17T22:43:11.476Z,102759.25
2023-04-17T22:45:37.972Z,102737.88
2023-04-17T22:48:04.596Z,102785.38
2023-04-17T22:50:32.418Z,102787.09
2023-04-17T22:52:58.861Z,102783.66
2023-04-17T22:55:25.416Z,102776.59
2023-04-17T22:57:52.436Z,102786.59
2023-04-17T23:00:20.220Z,102787.44
2023-04-17T23:02:47.365Z,102786.75
2023-04-17T23:05:14.127Z,102729.94
2023-04-17T23:07:41.085Z,102772.13
2023-04-17T23:10:07.893Z,102788.56
2023-04-17T23:12:34.441Z,102794.66
2023-04-17T23:15:01.193Z,102765.34
2023-04-17T23:17:28.179Z,102792.94
2023-04-17T23:19:54.655Z,102769.81
2023-04-17T23:22:21.207Z,102763.78
2023-04-17T23:24:47.637Z,102788.63
2023-04-17T23:27:14.038Z,102791.28
2023-04-17T23:29:40.403Z,102782.94
2023-04-17T23:32:07.734Z,102793.25
2023-04-17T23:34:34.429Z,102791.53
2023-04-17T23:37:02.636Z,102784.66
2023-04-17T23:39:29.284Z,102795.41
2023-04-17T23:41:55.829Z,102743.88
2023-04-17T23:44:22.306Z,102790.09
2023-04-17T23:46:48.944Z,102789.56
2023-04-17T23:49:15.447Z,102791.63
2023-04-17T23:51:41.888Z,102795.53
2023-04-17T23:54:08.315Z,102793.13
2023-04-17T23:56:35.021Z,102798.72
2023-04-17T23:59:01.582Z,102762.03
